Time;durP1;ratioP1;P1;durP2;ratioP2;P2;SDS_P1;SDS_P2;PMS_P1;PMS_P2;Temp;Humidity;BMP_temperature;BMP_pressure;BME280_temperature;BME280_humidity;BME280_pressure;Samples;Min_cycle;Max_cycle;Signal;HPM_P1;HPM_P2
2021/04/02 00:09:50;;;;;;;7.93;3.90;;;8.60;99.90;;;;;;6739214;88;20272;-76
2021/04/02 00:19:51;;;;;;;10.43;4.32;;;8.40;99.90;;;;;;6733240;88;20744;-77
2021/04/02 00:29:51;;;;;;;10.77;4.35;;;8.40;99.90;;;;;;6737939;88;20208;-76
2021/04/02 00:39:52;;;;;;;8.50;4.47;;;8.30;99.90;;;;;;6743407;88;20177;-76
2021/04/02 00:49:52;;;;;;;9.98;4.82;;;8.20;99.90;;;;;;6740637;88;20204;-76
2021/04/02 00:59:53;;;;;;;8.93;5.03;;;8.10;99.90;;;;;;6739555;88;20222;-74
2021/04/02 01:09:54;;;;;;;8.20;5.15;;;8.10;99.90;;;;;;6739567;88;20196;-75
2021/04/02 01:19:56;;;;;;;10.20;5.20;;;7.90;99.90;;;;;;6736059;88;20296;-74
2021/04/02 01:30:02;;;;;;;9.02;5.05;;;7.90;99.90;;;;;;6738268;88;20908;-74
2021/04/02 01:40:07;;;;;;;9.93;4.97;;;7.80;99.90;;;;;;6739106;88;20632;-77
2021/04/02 01:50:12;;;;;;;7.95;5.03;;;7.70;99.90;;;;;;6743132;88;20185;-76
2021/04/02 02:00:21;;;;;;;8.73;4.70;;;7.60;99.90;;;;;;6755660;88;20218;-74
2021/04/02 02:10:22;;;;;;;9.77;5.20;;;7.50;99.90;;;;;;6737948;88;20190;-77
2021/04/02 02:20:24;;;;;;;8.57;5.10;;;7.50;99.90;;;;;;6738825;76;20271;-76
2021/04/02 02:30:27;;;;;;;11.00;5.45;;;7.50;99.90;;;;;;6737741;88;20255;-77
2021/04/02 02:40:31;;;;;;;10.40;5.70;;;7.40;99.90;;;;;;6737892;88;20764;-75
2021/04/02 02:50:34;;;;;;;9.85;5.85;;;7.30;99.90;;;;;;6734741;88;20631;-75
2021/04/02 03:00:42;;;;;;;13.52;5.95;;;7.30;99.90;;;;;;6733212;88;20217;-74
2021/04/02 03:10:43;;;;;;;15.73;6.60;;;7.30;99.90;;;;;;6737689;88;20747;-76
2021/04/02 03:20:46;;;;;;;11.77;6.25;;;7.20;99.90;;;;;;6737194;88;21066;-75
2021/04/02 03:30:47;;;;;;;11.68;7.03;;;7.10;99.90;;;;;;6737523;88;20201;-75
2021/04/02 03:40:51;;;;;;;14.00;7.12;;;7.00;99.90;;;;;;6737956;88;20324;-76
2021/04/02 03:50:55;;;;;;;11.80;6.50;;;6.90;99.90;;;;;;6737580;88;20256;-75
2021/04/02 04:01:05;;;;;;;11.38;6.60;;;6.90;99.90;;;;;;6737730;88;20184;-75
2021/04/02 04:11:08;;;;;;;13.90;7.35;;;6.90;99.90;;;;;;6737089;88;20196;-76
2021/04/02 04:21:10;;;;;;;20.33;8.27;;;6.90;99.90;;;;;;6736886;88;20192;-75
2021/04/02 04:31:12;;;;;;;13.43;7.82;;;7.00;99.90;;;;;;6737401;88;20339;-75
2021/04/02 04:41:14;;;;;;;16.08;8.25;;;6.90;99.90;;;;;;6737099;88;20331;-76
2021/04/02 04:51:17;;;;;;;15.18;8.55;;;6.90;99.90;;;;;;6726670;88;20186;-76
2021/04/02 05:01:20;;;;;;;14.98;8.30;;;7.10;99.90;;;;;;6729982;88;20371;-76
2021/04/02 05:11:23;;;;;;;15.43;9.23;;;7.30;99.90;;;;;;6730460;88;20186;-77
2021/04/02 05:21:24;;;;;;;16.02;9.38;;;7.40;99.90;;;;;;6732083;88;20245;-76
2021/04/02 05:31:24;;;;;;;15.80;8.50;;;7.50;99.90;;;;;;6725876;88;20253;-76
2021/04/02 05:41:31;;;;;;;14.52;7.07;;;7.50;99.90;;;;;;6724154;88;21084;-76
2021/04/02 05:51:33;;;;;;;17.17;8.60;;;7.60;99.90;;;;;;6724969;88;20646;-77
2021/04/02 06:01:33;;;;;;;13.75;7.65;;;7.40;99.90;;;;;;6729321;88;20210;-77
2021/04/02 06:11:36;;;;;;;13.18;6.10;;;7.50;99.90;;;;;;6732501;88;20248;-77
2021/04/02 06:21:54;;;;;;;11.55;5.95;;;7.50;99.90;;;;;;6736267;88;20202;-76
2021/04/02 06:31:56;;;;;;;13.02;6.18;;;7.50;99.90;;;;;;6736609;88;20224;-76
2021/04/02 06:41:58;;;;;;;16.65;7.12;;;7.60;99.90;;;;;;6733504;88;20210;-77
2021/04/02 06:52:00;;;;;;;16.17;8.40;;;7.50;99.90;;;;;;6723905;88;20189;-76
2021/04/02 07:02:03;;;;;;;15.23;8.02;;;7.50;99.90;;;;;;6727097;88;20248;-77
2021/04/02 07:12:05;;;;;;;17.83;8.80;;;7.60;99.90;;;;;;6732922;88;20211;-77
2021/04/02 07:22:07;;;;;;;16.83;8.00;;;7.60;99.90;;;;;;6731705;88;20298;-77
2021/04/02 07:32:09;;;;;;;15.75;8.40;;;7.70;99.90;;;;;;6734572;88;20250;-77
2021/04/02 07:42:10;;;;;;;16.65;8.00;;;7.70;99.90;;;;;;6732186;88;20208;-77
2021/04/02 07:52:10;;;;;;;18.35;8.10;;;7.80;99.90;;;;;;6729501;88;20256;-75
2021/04/02 08:02:16;;;;;;;15.05;7.55;;;7.70;99.90;;;;;;6734919;88;20211;-77
2021/04/02 08:12:20;;;;;;;17.83;7.53;;;7.90;99.90;;;;;;6729966;88;20164;-76
2021/04/02 08:22:24;;;;;;;15.63;7.60;;;8.10;99.90;;;;;;6731854;77;20194;-75
2021/04/02 08:32:24;;;;;;;12.85;7.75;;;8.20;99.90;;;;;;6723735;88;20315;-75
2021/04/02 08:42:29;;;;;;;13.15;6.55;;;8.50;99.90;;;;;;6717081;88;20212;-75
2021/04/02 08:52:31;;;;;;;15.25;7.37;;;8.60;99.90;;;;;;6721706;88;20197;-74
2021/04/02 09:02:34;;;;;;;16.70;8.38;;;8.80;99.90;;;;;;6723190;88;20206;-75
2021/04/02 09:12:35;;;;;;;14.48;7.60;;;9.00;99.90;;;;;;6735196;88;20234;-75
2021/04/02 09:22:35;;;;;;;13.70;7.07;;;9.10;99.90;;;;;;6727875;88;20206;-75
2021/04/02 09:32:36;;;;;;;13.95;6.85;;;9.60;99.90;;;;;;6724411;88;20568;-75
2021/04/02 09:42:37;;;;;;;12.87;6.60;;;9.80;99.90;;;;;;6734066;88;20237;-75
2021/04/02 09:52:39;;;;;;;10.02;5.12;;;9.70;99.90;;;;;;6730074;88;20556;-75
2021/04/02 10:02:40;;;;;;;7.22;4.20;;;10.10;99.90;;;;;;6722851;88;20702;-75
2021/04/02 10:12:41;;;;;;;6.25;3.25;;;10.10;99.90;;;;;;6734607;88;20194;-75
2021/04/02 10:22:41;;;;;;;5.97;3.62;;;10.10;99.90;;;;;;6725372;88;20185;-75
2021/04/02 10:32:42;;;;;;;5.65;3.55;;;11.60;99.90;;;;;;6723116;88;20280;-75
2021/04/02 10:42:42;;;;;;;5.32;3.12;;;11.90;99.60;;;;;;6722780;88;21001;-75
2021/04/02 10:52:43;;;;;;;6.32;3.22;;;11.80;99.00;;;;;;6735097;88;20212;-75
2021/04/02 11:02:44;;;;;;;6.93;3.25;;;11.60;98.80;;;;;;6725583;88;20202;-75
2021/04/02 11:12:45;;;;;;;6.15;3.28;;;13.20;96.40;;;;;;6722582;88;20237;-75
2021/04/02 11:22:45;;;;;;;8.05;4.20;;;14.10;94.10;;;;;;6716759;88;20231;-75
2021/04/02 11:32:47;;;;;;;11.73;6.03;;;13.00;94.90;;;;;;6725445;88;20188;-75
2021/04/02 11:42:47;;;;;;;10.25;5.25;;;12.40;95.70;;;;;;6718304;88;20492;-75
2021/04/02 11:52:48;;;;;;;13.05;5.72;;;12.60;95.30;;;;;;6721750;88;20210;-75
2021/04/02 12:02:48;;;;;;;12.57;6.07;;;14.30;92.10;;;;;;6718060;88;20840;-75
2021/04/02 12:12:49;;;;;;;12.05;5.62;;;14.60;90.80;;;;;;6735044;88;20193;-75
2021/04/02 12:22:50;;;;;;;12.03;6.20;;;14.40;91.00;;;;;;6720479;88;20207;-75
2021/04/02 12:32:50;;;;;;;8.68;5.28;;;14.00;91.40;;;;;;6728563;88;20525;-75
2021/04/02 12:42:52;;;;;;;12.27;5.37;;;14.10;92.60;;;;;;6726616;88;20378;-75
2021/04/02 12:52:53;;;;;;;10.73;5.43;;;13.90;92.50;;;;;;6734837;88;20230;-75
2021/04/02 13:02:55;;;;;;;9.82;5.07;;;13.50;92.80;;;;;;6722176;88;20186;-75
2021/04/02 13:12:56;;;;;;;12.30;6.82;;;12.60;92.60;;;;;;6727345;88;20197;-75
2021/04/02 13:22:59;;;;;;;16.08;8.75;;;11.60;93.50;;;;;;6732781;88;20750;-75
2021/04/02 13:33:01;;;;;;;30.48;16.20;;;13.20;90.80;;;;;;6725231;88;20227;-75
2021/04/02 13:43:02;;;;;;;37.25;20.30;;;12.20;95.00;;;;;;6735274;88;20677;-75
2021/04/02 13:53:03;;;;;;;40.95;20.60;;;10.50;99.90;;;;;;6721934;88;20216;-75
2021/04/02 14:03:05;;;;;;;34.33;17.35;;;10.00;99.90;;;;;;6720287;88;20270;-75
2021/04/02 14:13:08;;;;;;;42.90;19.33;;;9.80;99.90;;;;;;6722870;88;20219;-75
2021/04/02 14:23:09;;;;;;;38.03;19.77;;;9.90;99.90;;;;;;6732080;88;20197;-75
2021/04/02 14:33:10;;;;;;;37.80;21.73;;;9.70;99.90;;;;;;6723906;88;20803;-75
2021/04/02 14:43:13;;;;;;;41.10;21.23;;;9.80;99.90;;;;;;6724289;88;20182;-75
2021/04/02 14:53:13;;;;;;;39.80;22.77;;;9.60;99.90;;;;;;6725264;76;20193;-75
2021/04/02 15:03:15;;;;;;;31.33;18.35;;;9.90;99.90;;;;;;6725185;88;20196;-75
2021/04/02 15:13:15;;;;;;;28.30;15.68;;;9.50;99.90;;;;;;6713763;88;20206;-76
2021/04/02 15:23:16;;;;;;;22.98;14.85;;;9.60;99.50;;;;;;6734549;88;20213;-76
2021/04/02 15:33:16;;;;;;;24.33;15.88;;;9.60;99.30;;;;;;6731897;88;20189;-76
2021/04/02 15:43:17;;;;;;;22.55;15.77;;;9.80;99.60;;;;;;6728701;88;20289;-76
2021/04/02 15:53:18;;;;;;;22.40;15.32;;;10.30;98.40;;;;;;6738269;88;20237;-76
2021/04/02 16:03:19;;;;;;;18.90;11.38;;;10.10;98.10;;;;;;6732113;88;20848;-76
2021/04/02 16:13:19;;;;;;;23.92;14.98;;;9.50;98.80;;;;;;6733110;88;20601;-76
2021/04/02 16:23:20;;;;;;;22.95;13.70;;;9.60;98.70;;;;;;6730373;88;20180;-76
2021/04/02 16:33:22;;;;;;;21.23;12.85;;;9.60;98.60;;;;;;6729005;88;20264;-76
2021/04/02 16:43:22;;;;;;;23.15;11.68;;;9.50;98.90;;;;;;6728410;88;20198;-76
2021/04/02 16:53:23;;;;;;;22.37;12.98;;;9.30;99.00;;;;;;6725630;88;20218;-76
2021/04/02 17:03:24;;;;;;;16.33;8.07;;;9.10;99.50;;;;;;6723910;88;20693;-76
2021/04/02 17:13:25;;;;;;;22.40;13.30;;;8.90;99.90;;;;;;6721936;88;20660;-76
2021/04/02 17:23:25;;;;;;;23.40;11.80;;;8.80;99.90;;;;;;6709110;88;20665;-76
2021/04/02 17:33:26;;;;;;;23.75;13.90;;;8.60;99.90;;;;;;6719110;88;20206;-76
2021/04/02 17:43:27;;;;;;;26.62;14.90;;;8.60;99.90;;;;;;6720343;88;20357;-76
2021/04/02 17:53:28;;;;;;;28.45;15.80;;;8.50;99.90;;;;;;6726972;88;20392;-76
2021/04/02 18:03:28;;;;;;;36.40;16.85;;;8.50;99.90;;;;;;6732168;88;20342;-76
2021/04/02 18:13:29;;;;;;;27.77;15.40;;;8.30;99.90;;;;;;6718977;88;20196;-76
2021/04/02 18:23:30;;;;;;;22.20;12.52;;;8.00;99.90;;;;;;6729361;88;20649;-76
2021/04/02 18:33:30;;;;;;;19.73;9.85;;;8.20;99.90;;;;;;6693276;88;20189;-75
2021/04/02 18:43:31;;;;;;;17.95;8.55;;;8.10;99.90;;;;;;6719468;88;20200;-76
2021/04/02 18:53:32;;;;;;;19.98;8.20;;;8.10;99.90;;;;;;6720138;88;20250;-76
2021/04/02 19:03:33;;;;;;;15.32;8.13;;;8.10;99.90;;;;;;6731117;88;20188;-77
2021/04/02 19:13:35;;;;;;;16.23;7.53;;;8.00;99.90;;;;;;6729417;88;20252;-77
2021/04/02 19:23:36;;;;;;;12.98;6.03;;;8.10;99.90;;;;;;6731045;88;20211;-76
2021/04/02 19:33:37;;;;;;;11.95;5.32;;;8.00;99.90;;;;;;6730160;88;20194;-76
2021/04/02 19:43:39;;;;;;;10.73;4.85;;;7.80;99.90;;;;;;6730296;88;20267;-76
2021/04/02 19:53:39;;;;;;;9.23;3.42;;;7.80;99.90;;;;;;6733150;88;20182;-76
2021/04/02 20:03:40;;;;;;;7.57;2.78;;;7.70;99.90;;;;;;6726409;88;20705;-76
2021/04/02 20:13:40;;;;;;;5.70;2.33;;;7.70;99.90;;;;;;6724702;88;20607;-76
2021/04/02 20:23:41;;;;;;;5.90;2.20;;;7.70;99.90;;;;;;6732603;88;20489;-76
2021/04/02 20:33:42;;;;;;;5.93;2.80;;;7.70;99.90;;;;;;6728055;88;20235;-76
2021/04/02 20:43:42;;;;;;;8.82;2.80;;;7.60;99.90;;;;;;6729072;88;21265;-76
2021/04/02 20:53:43;;;;;;;5.82;2.20;;;7.80;99.90;;;;;;6724940;88;21123;-76
2021/04/02 21:03:43;;;;;;;6.55;3.10;;;7.70;99.90;;;;;;6732382;88;20269;-77
2021/04/02 21:13:44;;;;;;;7.90;2.65;;;7.60;99.90;;;;;;6733276;88;20338;-76
2021/04/02 21:23:44;;;;;;;6.12;2.10;;;7.50;99.90;;;;;;6730435;88;20657;-76
2021/04/02 21:33:45;;;;;;;8.35;2.35;;;7.40;99.90;;;;;;6725966;88;20201;-78
2021/04/02 21:43:46;;;;;;;7.57;2.35;;;7.30;99.90;;;;;;6732646;88;20197;-75
2021/04/02 21:53:46;;;;;;;7.03;1.77;;;7.30;99.90;;;;;;6733300;88;20245;-78
2021/04/02 22:03:47;;;;;;;6.70;1.75;;;7.20;99.90;;;;;;6737103;88;20975;-77
2021/04/02 22:13:47;;;;;;;4.65;1.80;;;7.30;99.90;;;;;;6732672;88;20224;-77
2021/04/02 22:23:53;;;;;;;6.68;2.58;;;7.40;99.90;;;;;;6749191;77;20246;-75
2021/04/02 22:33:55;;;;;;;6.93;3.17;;;7.40;99.90;;;;;;6765529;87;20184;-76
2021/04/02 22:43:56;;;;;;;10.00;3.70;;;7.50;99.90;;;;;;6759919;87;20706;-75
2021/04/02 22:53:57;;;;;;;10.52;3.62;;;7.40;99.90;;;;;;6754472;88;20333;-76
2021/04/02 23:03:57;;;;;;;7.93;3.35;;;7.30;99.90;;;;;;6754487;88;20180;-76
2021/04/02 23:13:58;;;;;;;5.95;2.17;;;7.40;99.90;;;;;;6751717;87;20196;-75
2021/04/02 23:23:58;;;;;;;4.87;2.10;;;7.10;99.90;;;;;;6755348;88;20274;-75
2021/04/02 23:33:59;;;;;;;7.93;2.50;;;7.00;99.90;;;;;;6755358;88;20199;-75
2021/04/02 23:43:59;;;;;;;7.07;2.45;;;7.00;99.90;;;;;;6755633;87;20330;-75
2021/04/02 23:54:00;;;;;;;5.60;2.35;;;6.80;99.90;;;;;;6752083;88;20193;-76
